Ana Sayfa
METAR-TAF:

METAR-TAF

Havaalanları :

Mahikeng, Güney Afrika

Enlem: 25-47S, Boylam: 025-32E, yükseklik: 1281 m

Güncel hava durumu gözlemi

Rapor saat 08:00 UTC de 19 dakika önce yapıldı.
Rüzgar kuzey/kuzeydoğudan 12 kt
Sıcaklık 25°C
Nem 36%
Basınç 1025 hPa
Görüş mesafesi 10 km veya daha fazla
1500 m altında bulut yok ve kümülonimbus yok

METAR: FAMM 150800Z 03012KT CAVOK 25/09 Q1025 NOSIG

Saat: 10:19 (08:19 UTC)

Tahmin

Rapor saat 03:00 UTC de 5 saat ve 19 dakika önce yapıldı.
Ayın 15'si saat 04 UTC'den ayın 15'si saat 15 UTC'ye kadar geçerli Tahmin
Rüzgar kuzeydoğudan 12 kt
Görüş mesafesi 10 km veya daha fazla
1500 m altında bulut yok ve kümülonimbus yok
Dönüşüyor
ayın 15'si saat 09 UTC'den ayın 15'si saat 11 UTC'ye kadar
Rüzgar kuzey/kuzeybatıdan 8 kt

TAF: FAMM 150300Z 1504/1515 04012KT CAVOK TX31/1513Z TN10/1504Z BECMG 1509/1511 33008KT

4.000'den fazla havaalanı için hava durumu gözlemleri ve tahminleri (METAR ve TAF raporları).

Kullanılabilir istasyonlar harita üzerinde sarı ve kırmızı noktalarla gösterilir.

İstasyonun adını görmek için fareyi noktanın üzerinde gezdirin.

Sonrasında hava gözlem ve tahminlerini görmek için tıklayın.

Haritayı değiştirmek için: yaklaştırmak için siyah artı işaretli yeşil düğmeye ve uzaklaştırmak için de eksi işaretli düğmeye hızla tıklayın; bitişik haritalar için yeşil okları kullanın.


METAR-TAF: